createdAt,value
2019-03-20T05:00:33.185Z,0
2019-03-20T05:04:01.044Z,0
2019-03-20T05:07:28.881Z,0
2019-03-20T05:10:56.706Z,5.625
2019-03-20T05:14:24.556Z,5.625
2019-03-20T05:17:52.392Z,11.25
2019-03-20T05:21:20.384Z,11.25
2019-03-20T05:24:50.196Z,16.875
2019-03-20T05:28:18.049Z,16.875
2019-03-20T05:31:46.053Z,22.5
2019-03-20T05:35:13.968Z,28.125
2019-03-20T05:38:41.823Z,33.75
2019-03-20T05:42:09.788Z,33.75
2019-03-20T05:45:38.617Z,39.375
2019-03-20T05:49:06.456Z,39.375
2019-03-20T05:52:35.295Z,39.375
2019-03-20T05:56:03.132Z,39.375
2019-03-20T05:59:30.960Z,45
2019-03-20T06:02:59.949Z,56.25
2019-03-20T06:06:27.791Z,56.25
2019-03-20T06:09:55.627Z,50.625
2019-03-20T06:13:23.479Z,67.5
2019-03-20T06:16:51.323Z,78.75
2019-03-20T06:20:19.208Z,84.375
2019-03-20T06:23:47.144Z,90
2019-03-20T06:27:14.983Z,90
2019-03-20T06:30:43.991Z,95.625
2019-03-20T06:34:11.830Z,101.25
2019-03-20T06:37:39.731Z,112.5
2019-03-20T06:41:07.607Z,140.625
2019-03-20T06:44:35.427Z,157.5
2019-03-20T06:48:04.433Z,185.625
2019-03-20T06:51:32.302Z,185.625
2019-03-20T06:55:01.556Z,168.75
2019-03-20T06:58:29.167Z,157.5
2019-03-20T07:01:57.012Z,140.625
2019-03-20T07:05:26.052Z,123.75
2019-03-20T07:08:53.794Z,112.5
2019-03-20T07:12:21.634Z,112.5
2019-03-20T07:15:49.512Z,129.375
2019-03-20T07:19:17.342Z,157.5
2019-03-20T07:22:45.179Z,168.75
2019-03-20T07:26:13.003Z,174.375
2019-03-20T07:29:41.026Z,180
2019-03-20T07:33:08.875Z,168.75
2019-03-20T07:36:36.697Z,191.25
2019-03-20T07:40:04.541Z,230.625
2019-03-20T07:43:32.367Z,270
2019-03-20T07:47:00.315Z,264.375
2019-03-20T07:50:28.398Z,253.125
2019-03-20T07:53:56.235Z,281.25
2019-03-20T07:57:24.072Z,309.375
2019-03-20T08:00:52.906Z,337.5
2019-03-20T08:04:20.774Z,315
2019-03-20T08:07:48.598Z,292.5
2019-03-20T08:11:16.718Z,281.25
2019-03-20T08:14:44.414Z,281.25
2019-03-20T08:18:12.258Z,292.5
2019-03-20T08:21:40.095Z,337.5
2019-03-20T08:25:08.924Z,365.625
2019-03-20T08:28:36.775Z,337.5
2019-03-20T08:32:05.730Z,331.875
2019-03-20T08:35:35.215Z,354.375
2019-03-20T08:39:03.050Z,421.875
2019-03-20T08:42:30.874Z,433.125
2019-03-20T08:45:59.714Z,416.25
2019-03-20T08:49:27.619Z,405
2019-03-20T08:52:55.480Z,416.25
2019-03-20T08:56:23.425Z,410.625
2019-03-20T08:59:51.263Z,337.5
2019-03-20T09:03:19.098Z,303.75
2019-03-20T09:06:46.946Z,343.125
2019-03-20T09:10:14.781Z,376.875
2019-03-20T09:13:42.609Z,399.375
2019-03-20T09:17:12.554Z,382.5
2019-03-20T09:20:40.525Z,343.125
2019-03-20T09:24:09.379Z,410.625
2019-03-20T09:27:37.222Z,461.25
2019-03-20T09:31:05.323Z,472.5
2019-03-20T09:34:33.219Z,461.25
2019-03-20T09:38:02.050Z,433.125
2019-03-20T09:41:29.891Z,410.625
2019-03-20T09:44:57.739Z,371.25
2019-03-20T09:48:25.561Z,331.875
2019-03-20T09:51:54.401Z,371.25
2019-03-20T09:55:22.234Z,399.375
2019-03-20T09:58:50.210Z,466.875
2019-03-20T10:02:18.061Z,534.375
2019-03-20T10:05:45.891Z,472.5
2019-03-20T10:09:14.724Z,455.625
2019-03-20T10:12:42.560Z,438.75
2019-03-20T10:16:10.396Z,405
2019-03-20T10:19:38.468Z,393.75
2019-03-20T10:23:06.317Z,315
2019-03-20T10:26:34.151Z,270
2019-03-20T10:30:02.551Z,230.625
2019-03-20T10:33:30.430Z,236.25
2019-03-20T10:36:58.265Z,275.625
2019-03-20T10:40:26.288Z,326.25
2019-03-20T10:43:55.076Z,343.125
2019-03-20T10:47:23.929Z,365.625
2019-03-20T10:50:51.764Z,438.75
2019-03-20T10:54:20.584Z,444.375
2019-03-20T10:57:48.437Z,343.125
2019-03-20T11:01:16.627Z,427.5
2019-03-20T11:04:44.348Z,399.375
2019-03-20T11:08:13.269Z,399.375
2019-03-20T11:11:41.018Z,292.5
2019-03-20T11:15:09.966Z,202.5
2019-03-20T11:18:37.801Z,174.375
2019-03-20T11:22:17.876Z,151.875
2019-03-20T11:25:37.548Z,140.625
2019-03-20T11:29:06.375Z,146.25
2019-03-20T11:32:34.299Z,118.125
2019-03-20T11:36:02.162Z,129.375
2019-03-20T11:39:31.994Z,118.125
2019-03-20T11:43:00.200Z,123.75
2019-03-20T11:46:28.046Z,140.625
2019-03-20T11:49:55.878Z,163.125
2019-03-20T11:53:23.723Z,191.25
2019-03-20T11:56:51.565Z,185.625
2019-03-20T12:00:19.405Z,163.125
2019-03-20T12:03:49.374Z,140.625
2019-03-20T12:07:17.230Z,135
2019-03-20T12:10:45.049Z,146.25
2019-03-20T12:14:12.889Z,151.875
2019-03-20T12:17:40.732Z,146.25
2019-03-20T12:21:08.579Z,191.25
2019-03-20T12:24:36.795Z,168.75
2019-03-20T12:28:04.442Z,146.25
2019-03-20T12:31:33.367Z,157.5
2019-03-20T12:35:01.334Z,163.125
2019-03-20T12:38:29.165Z,157.5
2019-03-20T12:41:57.026Z,151.875
2019-03-20T12:45:24.846Z,106.875
2019-03-20T12:48:52.819Z,112.5
2019-03-20T12:52:20.660Z,168.75
2019-03-20T12:55:48.494Z,168.75
2019-03-20T12:59:17.328Z,157.5
2019-03-20T13:02:46.167Z,118.125
2019-03-20T13:06:13.988Z,146.25
2019-03-20T13:09:41.976Z,129.375
2019-03-20T13:13:09.839Z,90
2019-03-20T13:16:39.643Z,101.25
2019-03-20T13:20:07.493Z,135
2019-03-20T13:23:35.357Z,140.625
2019-03-20T13:27:03.185Z,112.5
2019-03-20T13:30:31.362Z,112.5
2019-03-20T13:33:59.285Z,106.875
2019-03-20T13:37:27.100Z,95.625
2019-03-20T13:40:54.948Z,90
2019-03-20T13:44:22.783Z,95.625
2019-03-20T13:47:50.637Z,90
2019-03-20T13:51:18.610Z,90
2019-03-20T13:54:46.458Z,101.25
2019-03-20T13:58:14.294Z,101.25
2019-03-20T14:01:42.128Z,95.625
2019-03-20T14:05:09.985Z,118.125
2019-03-20T14:08:37.877Z,129.375
2019-03-20T14:12:05.947Z,118.125
2019-03-20T14:15:33.740Z,112.5
2019-03-20T14:19:01.582Z,101.25
2019-03-20T14:22:30.281Z,129.375
2019-03-20T14:25:59.168Z,112.5
2019-03-20T14:29:27.281Z,118.125
2019-03-20T14:32:56.973Z,95.625
2019-03-20T14:36:25.613Z,95.625
2019-03-20T14:39:53.454Z,90
2019-03-20T14:43:21.293Z,78.75
2019-03-20T14:46:49.116Z,78.75
2019-03-20T14:50:16.956Z,84.375
2019-03-20T14:53:46.045Z,67.5
2019-03-20T14:57:13.771Z,56.25
2019-03-20T15:00:42.606Z,61.875
2019-03-20T15:04:10.437Z,56.25
2019-03-20T15:07:38.292Z,67.5
2019-03-20T15:11:06.136Z,67.5
2019-03-20T15:14:33.990Z,67.5
2019-03-20T15:18:02.017Z,73.125
2019-03-20T15:21:29.865Z,61.875
2019-03-20T15:24:57.714Z,56.25
2019-03-20T15:28:25.784Z,50.625
2019-03-20T15:31:53.972Z,45
2019-03-20T15:35:22.171Z,56.25
2019-03-20T15:38:51.675Z,50.625
2019-03-20T15:42:27.058Z,45
2019-03-20T15:45:55.889Z,45
2019-03-20T15:49:23.722Z,45
2019-03-20T15:52:51.554Z,33.75
2019-03-20T15:56:20.318Z,33.75
2019-03-20T15:59:48.149Z,33.75
2019-03-20T16:03:15.986Z,28.125
2019-03-20T16:06:43.853Z,28.125
2019-03-20T16:10:12.683Z,28.125
2019-03-20T16:13:40.519Z,22.5
2019-03-20T16:17:08.349Z,22.5
2019-03-20T16:20:36.177Z,22.5
2019-03-20T16:24:04.050Z,22.5
2019-03-20T16:27:31.889Z,22.5
2019-03-20T16:30:59.783Z,16.875
2019-03-20T16:34:27.620Z,11.25
2019-03-20T16:37:55.479Z,11.25
2019-03-20T16:41:23.296Z,11.25
2019-03-20T16:44:51.156Z,5.625
2019-03-20T16:48:19.003Z,5.625
2019-03-20T16:51:46.825Z,5.625
2019-03-20T16:55:14.672Z,5.625
2019-03-20T16:58:42.503Z,5.625
2019-03-20T17:02:10.386Z,0
2019-03-20T17:05:38.170Z,0
2019-03-20T17:09:06.007Z,0
2019-03-20T17:12:33.830Z,0
2019-03-20T17:16:01.662Z,0
2019-03-20T17:19:29.508Z,0
2019-03-20T17:22:57.395Z,0
2019-03-20T17:26:25.214Z,0
2019-03-20T17:29:53.106Z,0
2019-03-20T17:33:21.647Z,0
2019-03-20T17:36:49.492Z,0
2019-03-20T17:40:17.379Z,0
2019-03-20T17:43:45.985Z,0
2019-03-20T17:47:13.804Z,0
2019-03-20T17:50:41.645Z,0
2019-03-20T17:54:09.483Z,0
2019-03-20T17:57:37.316Z,0
2019-03-20T18:01:05.147Z,0
2019-03-20T18:04:32.990Z,0
2019-03-20T18:08:00.873Z,0
2019-03-20T18:11:28.698Z,0
2019-03-20T18:14:56.552Z,0
2019-03-20T18:18:24.412Z,0
2019-03-20T18:21:52.227Z,0
2019-03-20T18:25:20.061Z,0
2019-03-20T18:28:47.912Z,0
2019-03-20T18:32:15.739Z,0
2019-03-20T18:35:43.590Z,0
2019-03-20T18:39:11.448Z,0
2019-03-20T18:42:39.311Z,0
2019-03-20T18:46:07.151Z,0
2019-03-20T18:49:35.006Z,0
2019-03-20T18:53:02.829Z,0
2019-03-20T18:56:31.644Z,0
2019-03-20T18:59:59.597Z,0
2019-03-20T19:03:28.425Z,0
2019-03-20T19:06:56.265Z,0
2019-03-20T19:10:24.171Z,0
2019-03-20T19:13:52.023Z,0
2019-03-20T19:17:20.851Z,0
2019-03-20T19:20:48.691Z,0
2019-03-20T19:24:16.509Z,0
2019-03-20T19:27:45.354Z,0
2019-03-20T19:31:13.248Z,0
2019-03-20T19:34:41.095Z,0
2019-03-20T19:38:08.950Z,0
2019-03-20T19:41:36.846Z,0
2019-03-20T19:45:04.744Z,0
2019-03-20T19:48:33.616Z,0
2019-03-20T19:52:01.522Z,0
2019-03-20T19:55:30.344Z,0
2019-03-20T19:58:58.267Z,0
2019-03-20T20:02:28.108Z,0
2019-03-20T20:05:58.299Z,0
2019-03-20T20:09:26.580Z,0
2019-03-20T20:12:54.601Z,0
2019-03-20T20:16:24.226Z,0
2019-03-20T20:19:53.119Z,0
2019-03-20T20:23:22.504Z,0
2019-03-20T20:26:51.378Z,0
2019-03-20T20:30:20.978Z,0
2019-03-20T20:33:48.830Z,0
2019-03-20T20:37:16.753Z,0
2019-03-20T20:40:45.423Z,0
2019-03-20T20:44:13.307Z,0
2019-03-20T20:47:41.191Z,0
2019-03-20T20:51:09.054Z,0
2019-03-20T20:54:37.904Z,0
2019-03-20T20:58:05.752Z,0
2019-03-20T21:01:34.204Z,0
2019-03-20T21:05:02.070Z,0
2019-03-20T21:08:30.879Z,0
2019-03-20T21:11:58.754Z,0
2019-03-20T21:15:27.645Z,0
2019-03-20T21:18:56.271Z,0
2019-03-20T21:22:24.960Z,0
2019-03-20T21:25:53.587Z,0
2019-03-20T21:29:22.450Z,0
2019-03-20T21:32:50.314Z,0
2019-03-20T21:36:18.132Z,0
2019-03-20T21:39:45.983Z,0
2019-03-20T21:43:13.945Z,0
2019-03-20T21:46:41.765Z,0
2019-03-20T21:50:09.712Z,0
2019-03-20T21:53:37.559Z,0
2019-03-20T21:57:05.389Z,0
2019-03-20T22:00:33.223Z,0
2019-03-20T22:04:01.073Z,0
2019-03-20T22:07:28.896Z,0
2019-03-20T22:10:56.730Z,0
2019-03-20T22:14:24.608Z,0
2019-03-20T22:17:54.421Z,0
2019-03-20T22:21:22.258Z,0
2019-03-20T22:24:50.093Z,0
2019-03-20T22:28:17.936Z,0
2019-03-20T22:31:45.753Z,0
2019-03-20T22:35:13.600Z,0
2019-03-20T22:38:41.413Z,0
2019-03-20T22:42:09.259Z,0
2019-03-20T22:45:37.097Z,0
2019-03-20T22:49:04.919Z,0
2019-03-20T22:52:33.775Z,0
2019-03-20T22:56:01.643Z,0
2019-03-20T22:59:30.435Z,0
